createdAt,value
2023-05-15T00:01:24.667Z,56.40
2023-05-15T00:03:52.801Z,55.55
2023-05-15T00:06:19.927Z,55.57
2023-05-15T00:08:46.405Z,54.60
2023-05-15T00:11:13.337Z,54.66
2023-05-15T00:13:39.818Z,54.50
2023-05-15T00:16:07.883Z,53.65
2023-05-15T00:18:34.951Z,53.41
2023-05-15T00:21:01.418Z,53.76
2023-05-15T00:23:28.004Z,54.37
2023-05-15T00:25:54.916Z,54.44
2023-05-15T00:28:21.511Z,53.59
2023-05-15T00:30:48.043Z,53.36
2023-05-15T00:33:14.965Z,53.41
2023-05-15T00:35:41.421Z,53.77
2023-05-15T00:38:07.902Z,55.42
2023-05-15T00:40:36.113Z,56.06
2023-05-15T00:43:02.951Z,54.83
2023-05-15T00:45:30.388Z,54.45
2023-05-15T00:47:58.677Z,53.90
2023-05-15T00:50:25.607Z,53.82
2023-05-15T00:52:52.712Z,53.58
2023-05-15T00:55:19.502Z,53.43
2023-05-15T00:57:47.882Z,53.47
2023-05-15T01:00:16.934Z,53.10
2023-05-15T01:02:44.366Z,54.13
2023-05-15T01:05:11.978Z,53.76
2023-05-15T01:07:45.994Z,53.42
2023-05-15T01:10:13.146Z,53.49
2023-05-15T01:12:40.518Z,53.12
2023-05-15T01:15:07.401Z,52.73
2023-05-15T01:17:33.987Z,53.46
2023-05-15T01:20:02.858Z,53.10
2023-05-15T01:22:40.723Z,54.16
2023-05-15T01:25:22.722Z,53.90
2023-05-15T01:27:51.735Z,53.69
2023-05-15T01:30:22.509Z,54.34
2023-05-15T01:33:17.284Z,55.07
2023-05-15T01:35:48.345Z,55.28
2023-05-15T01:38:21.277Z,55.37
2023-05-15T01:40:57.736Z,55.63
2023-05-15T01:43:28.531Z,56.12
2023-05-15T01:45:56.173Z,56.20
2023-05-15T01:48:22.960Z,57.63
2023-05-15T01:50:51.514Z,57.32
2023-05-15T01:53:18.881Z,58.55
2023-05-15T01:55:46.731Z,58.64
2023-05-15T01:58:14.134Z,59.30
2023-05-15T02:00:41.425Z,58.59
2023-05-15T02:03:08.836Z,57.29
2023-05-15T02:05:35.760Z,56.95
2023-05-15T02:08:05.558Z,56.41
2023-05-15T02:10:33.803Z,56.16
2023-05-15T02:13:00.886Z,58.16
2023-05-15T02:15:29.208Z,57.35
2023-05-15T02:17:56.738Z,58.08
2023-05-15T02:20:24.279Z,58.13
2023-05-15T02:22:50.770Z,58.09
2023-05-15T02:25:18.009Z,58.38
2023-05-15T02:27:56.235Z,58.21
2023-05-15T02:30:32.885Z,57.43
2023-05-15T02:33:08.229Z,57.11
2023-05-15T02:35:53.271Z,56.70
2023-05-15T02:38:24.139Z,56.41
2023-05-15T02:40:51.454Z,56.52
2023-05-15T02:43:18.793Z,55.90
2023-05-15T02:45:47.870Z,55.21
2023-05-15T02:48:15.913Z,56.17
2023-05-15T02:50:43.151Z,56.28
2023-05-15T02:53:10.281Z,55.82
2023-05-15T02:55:38.266Z,58.19
2023-05-15T02:58:05.485Z,58.18
2023-05-15T03:00:32.112Z,57.23
2023-05-15T03:02:59.167Z,57.92
2023-05-15T03:05:27.095Z,56.95
2023-05-15T03:07:53.863Z,57.81
2023-05-15T03:10:23.764Z,58.12
2023-05-15T03:12:50.409Z,59.34
2023-05-15T03:15:17.173Z,57.73
2023-05-15T03:17:44.739Z,57.22
2023-05-15T03:20:11.317Z,57.36
2023-05-15T03:22:38.016Z,57.30
2023-05-15T03:25:04.974Z,58.28
2023-05-15T03:27:31.522Z,58.81
2023-05-15T03:29:58.378Z,58.44
2023-05-15T03:32:25.021Z,58.13
2023-05-15T03:34:51.751Z,58.02
2023-05-15T03:37:18.620Z,58.63
2023-05-15T03:39:45.201Z,57.90
2023-05-15T03:42:11.794Z,58.49
2023-05-15T03:44:38.693Z,58.28
2023-05-15T03:47:05.737Z,59.05
2023-05-15T03:49:32.287Z,59.02
2023-05-15T03:51:58.995Z,59.26
2023-05-15T03:54:25.676Z,60.11
2023-05-15T03:56:52.530Z,58.79
2023-05-15T03:59:19.519Z,59.15
2023-05-15T04:02:03.024Z,58.95
2023-05-15T04:04:31.192Z,58.06
2023-05-15T04:06:57.929Z,56.91
2023-05-15T04:09:24.393Z,57.68
2023-05-15T04:11:50.953Z,56.68
2023-05-15T04:14:17.428Z,57.65
2023-05-15T04:16:44.158Z,57.69
2023-05-15T04:19:11.083Z,57.88
2023-05-15T04:21:37.574Z,56.73
2023-05-15T04:24:04.778Z,58.60
2023-05-15T04:26:31.548Z,60.55
2023-05-15T04:29:03.891Z,60.46
2023-05-15T04:31:31.906Z,63.01
2023-05-15T04:33:58.824Z,63.06
2023-05-15T04:36:25.459Z,63.08
2023-05-15T04:38:52.495Z,62.83
2023-05-15T04:41:19.045Z,63.25
2023-05-15T04:43:45.974Z,63.57
2023-05-15T04:46:12.630Z,66.15
2023-05-15T04:48:39.641Z,68.27
2023-05-15T04:51:07.536Z,69.78
2023-05-15T04:53:34.285Z,68.76
2023-05-15T04:56:01.295Z,70.09
2023-05-15T04:58:28.013Z,69.76
2023-05-15T05:00:54.586Z,70.10
2023-05-15T05:03:21.775Z,69.63
2023-05-15T05:05:49.072Z,70.17
2023-05-15T05:08:15.762Z,71.92
2023-05-15T05:10:42.849Z,70.70
2023-05-15T05:13:09.347Z,71.04
2023-05-15T05:15:37.092Z,72.16
2023-05-15T05:18:03.896Z,72.36
2023-05-15T05:20:30.481Z,73.77
2023-05-15T05:22:57.832Z,72.11
2023-05-15T05:25:24.720Z,72.55
2023-05-15T05:27:51.561Z,70.64
2023-05-15T05:30:18.496Z,71.75
2023-05-15T05:32:45.203Z,72.19
2023-05-15T05:35:11.856Z,70.18
2023-05-15T05:37:40.826Z,70.54
2023-05-15T05:40:08.794Z,69.37
2023-05-15T05:42:35.565Z,68.42
2023-05-15T05:45:02.497Z,68.57
2023-05-15T05:47:29.338Z,68.32
2023-05-15T05:49:55.966Z,69.17
2023-05-15T05:52:23.125Z,69.20
2023-05-15T05:54:50.038Z,68.51
2023-05-15T05:57:16.749Z,67.09
2023-05-15T05:59:43.956Z,64.98
2023-05-15T06:02:11.429Z,67.85
2023-05-15T06:04:38.094Z,64.95
2023-05-15T06:07:05.053Z,63.61
2023-05-15T06:09:31.960Z,63.11
2023-05-15T06:11:58.523Z,63.58
2023-05-15T06:14:25.382Z,63.89
2023-05-15T06:16:52.616Z,62.53
2023-05-15T06:19:19.446Z,61.93
2023-05-15T06:21:46.262Z,62.08
2023-05-15T06:24:12.819Z,60.94
2023-05-15T06:26:39.430Z,63.85
2023-05-15T06:29:06.615Z,63.27
2023-05-15T06:31:33.199Z,62.13
2023-05-15T06:33:59.914Z,59.78
2023-05-15T06:36:27.161Z,59.53
2023-05-15T06:38:53.653Z,58.91
2023-05-15T06:41:21.464Z,60.45
2023-05-15T06:43:47.944Z,61.87
2023-05-15T06:46:16.996Z,64.04
2023-05-15T06:48:43.450Z,62.22
2023-05-15T06:51:10.127Z,61.11
2023-05-15T06:53:36.750Z,60.84
2023-05-15T06:56:03.460Z,62.32
2023-05-15T06:58:30.626Z,62.47
2023-05-15T07:00:59.325Z,59.64
2023-05-15T07:03:26.091Z,58.29
2023-05-15T07:05:53.569Z,58.33
2023-05-15T07:08:20.104Z,59.13
2023-05-15T07:10:48.484Z,57.22
2023-05-15T07:13:18.317Z,57.78
2023-05-15T07:15:45.288Z,56.94
2023-05-15T07:18:12.840Z,57.74
2023-05-15T07:20:39.631Z,58.42
2023-05-15T07:23:06.786Z,57.13
2023-05-15T07:25:33.497Z,58.34
2023-05-15T07:28:00.138Z,59.71
2023-05-15T07:30:27.344Z,59.09
2023-05-15T07:32:54.034Z,57.79
2023-05-15T07:35:21.141Z,61.00
2023-05-15T07:37:47.681Z,57.99
2023-05-15T07:40:15.430Z,57.64
2023-05-15T07:42:43.948Z,55.98
2023-05-15T07:45:10.590Z,57.61
2023-05-15T07:47:37.258Z,55.71
2023-05-15T07:50:04.509Z,54.66
2023-05-15T07:52:31.419Z,54.81
2023-05-15T07:54:59.150Z,58.28
2023-05-15T07:57:26.498Z,57.43
2023-05-15T07:59:53.289Z,57.92
2023-05-15T08:02:19.961Z,56.33
2023-05-15T08:04:46.826Z,55.12
2023-05-15T08:07:14.427Z,53.66
2023-05-15T08:09:41.374Z,53.68
2023-05-15T08:12:22.875Z,54.45
2023-05-15T08:14:53.127Z,53.15
2023-05-15T08:17:21.110Z,51.57
2023-05-15T08:19:48.140Z,53.62
2023-05-15T08:22:14.872Z,52.10
2023-05-15T08:24:41.836Z,54.23
2023-05-15T08:27:09.085Z,53.67
2023-05-15T08:29:38.581Z,54.09
2023-05-15T08:32:07.113Z,51.41
2023-05-15T08:34:33.667Z,51.47
2023-05-15T08:37:00.273Z,49.10
2023-05-15T08:39:27.225Z,51.88
2023-05-15T08:42:01.051Z,52.01
2023-05-15T08:44:28.103Z,51.34
2023-05-15T08:46:54.707Z,49.89
2023-05-15T08:49:32.458Z,51.22
2023-05-15T08:51:59.567Z,52.86
2023-05-15T08:54:26.225Z,55.63
2023-05-15T08:56:53.484Z,54.75
2023-05-15T08:59:20.827Z,56.51
2023-05-15T09:01:47.363Z,55.20
2023-05-15T09:04:14.291Z,53.59
2023-05-15T09:06:41.772Z,51.33
2023-05-15T09:09:09.396Z,52.09
2023-05-15T09:11:36.857Z,55.35
2023-05-15T09:14:04.684Z,53.54
2023-05-15T09:16:31.326Z,51.55
2023-05-15T09:18:59.047Z,48.60
2023-05-15T09:21:27.389Z,47.09
2023-05-15T09:23:55.545Z,42.86
2023-05-15T09:26:22.307Z,42.40
2023-05-15T09:28:49.465Z,42.52
2023-05-15T09:31:19.448Z,38.09
2023-05-15T09:33:46.485Z,36.85
2023-05-15T09:36:21.649Z,38.90
2023-05-15T09:38:49.748Z,35.48
2023-05-15T09:41:24.924Z,35.90
2023-05-15T09:43:51.535Z,35.66
2023-05-15T09:46:18.128Z,34.57
2023-05-15T09:48:44.792Z,30.21
2023-05-15T09:51:18.424Z,32.50
2023-05-15T09:53:55.330Z,33.58
2023-05-15T09:56:22.537Z,34.34
2023-05-15T09:58:57.716Z,32.95
2023-05-15T10:01:25.229Z,33.20
2023-05-15T10:04:03.172Z,31.90
2023-05-15T10:06:42.805Z,28.80
2023-05-15T10:09:11.063Z,30.33
2023-05-15T10:11:39.814Z,26.49
2023-05-15T10:14:07.703Z,23.88
2023-05-15T10:16:36.109Z,21.72
2023-05-15T10:19:07.824Z,20.51
2023-05-15T10:21:37.356Z,17.74
2023-05-15T10:24:05.225Z,16.14
2023-05-15T10:26:42.590Z,16.64
2023-05-15T10:29:13.716Z,16.94
2023-05-15T10:31:41.660Z,22.05
2023-05-15T10:34:09.303Z,23.27
2023-05-15T10:36:38.088Z,23.45
2023-05-15T10:39:06.713Z,21.17
2023-05-15T10:41:36.525Z,20.09
2023-05-15T10:44:03.478Z,22.44
2023-05-15T10:46:32.066Z,19.75
2023-05-15T10:49:00.597Z,20.55
2023-05-15T10:51:28.866Z,18.00
2023-05-15T10:54:00.782Z,17.24
2023-05-15T10:56:32.639Z,17.49
2023-05-15T10:59:09.082Z,20.27
2023-05-15T11:01:38.072Z,17.94
2023-05-15T11:04:17.924Z,14.93
2023-05-15T11:06:46.545Z,13.01
2023-05-15T11:09:22.758Z,12.50
2023-05-15T11:11:52.921Z,15.97
2023-05-15T11:14:20.044Z,14.63
2023-05-15T11:16:53.355Z,16.61
2023-05-15T11:19:23.867Z,13.47
2023-05-15T11:22:00.344Z,13.59
2023-05-15T11:24:29.308Z,14.23
2023-05-15T11:27:00.871Z,16.91
2023-05-15T11:29:27.353Z,17.44
2023-05-15T11:31:54.195Z,14.58
2023-05-15T11:34:32.683Z,13.54
2023-05-15T11:37:02.712Z,13.10
2023-05-15T11:39:29.511Z,15.81
2023-05-15T11:41:57.103Z,19.42
2023-05-15T11:44:24.491Z,19.64
2023-05-15T11:46:51.599Z,20.16
2023-05-15T11:49:19.512Z,20.34
2023-05-15T11:51:48.389Z,19.36
2023-05-15T11:54:15.259Z,19.88
2023-05-15T11:56:44.555Z,22.04
2023-05-15T11:59:17.211Z,22.97
2023-05-15T12:01:47.376Z,28.81
2023-05-15T12:04:15.589Z,30.26
2023-05-15T12:06:44.502Z,31.64
2023-05-15T12:09:16.628Z,33.15
2023-05-15T12:11:54.288Z,33.63
2023-05-15T12:14:30.503Z,34.94
2023-05-15T12:17:04.464Z,35.83
2023-05-15T12:19:31.476Z,35.25
2023-05-15T12:21:58.001Z,35.56
2023-05-15T12:24:26.517Z,34.56
2023-05-15T12:26:54.418Z,35.24
2023-05-15T12:29:22.621Z,35.95
2023-05-15T12:31:53.843Z,35.34
2023-05-15T12:34:21.378Z,34.73
2023-05-15T12:36:47.873Z,33.05
2023-05-15T12:39:14.382Z,32.80
2023-05-15T12:41:40.927Z,32.35
2023-05-15T12:44:16.441Z,31.39
2023-05-15T12:46:43.280Z,32.28
2023-05-15T12:49:10.717Z,31.67
2023-05-15T12:51:44.165Z,30.84
2023-05-15T12:54:21.016Z,30.20
2023-05-15T12:56:48.242Z,30.54
2023-05-15T12:59:15.118Z,29.99
2023-05-15T13:01:44.638Z,31.61
2023-05-15T13:04:11.573Z,29.74
2023-05-15T13:06:46.282Z,29.13
2023-05-15T13:09:13.847Z,29.37
2023-05-15T13:11:43.974Z,30.80
2023-05-15T13:14:17.616Z,28.54
2023-05-15T13:16:46.640Z,28.18
2023-05-15T13:19:13.901Z,28.67
2023-05-15T13:21:40.895Z,27.45
2023-05-15T13:24:09.921Z,29.04
2023-05-15T13:26:37.548Z,27.77
2023-05-15T13:29:04.116Z,28.33
2023-05-15T13:31:30.729Z,27.43
2023-05-15T13:33:57.776Z,27.49
2023-05-15T13:36:24.264Z,27.60
2023-05-15T13:38:50.860Z,26.51
2023-05-15T13:41:17.867Z,26.20
2023-05-15T13:43:44.657Z,26.87
2023-05-15T13:46:11.157Z,26.62
2023-05-15T13:48:37.706Z,26.75
2023-05-15T13:51:05.209Z,26.55
2023-05-15T13:53:31.808Z,28.21
2023-05-15T13:55:58.413Z,27.79
2023-05-15T13:58:26.683Z,27.35
2023-05-15T14:00:53.775Z,25.96
2023-05-15T14:03:20.715Z,26.76
2023-05-15T14:05:47.345Z,25.66
2023-05-15T14:08:13.900Z,24.71
2023-05-15T14:10:40.884Z,24.61
2023-05-15T14:13:07.638Z,25.24
2023-05-15T14:15:34.139Z,24.71
2023-05-15T14:18:01.037Z,25.89
2023-05-15T14:20:28.107Z,26.16
2023-05-15T14:22:54.726Z,26.48
2023-05-15T14:25:21.484Z,26.87
2023-05-15T14:27:48.059Z,27.09
2023-05-15T14:30:14.661Z,27.65
2023-05-15T14:32:41.464Z,27.45
2023-05-15T14:35:08.047Z,26.35
2023-05-15T14:37:34.914Z,27.99
2023-05-15T14:40:01.882Z,28.85
2023-05-15T14:42:28.405Z,28.75
2023-05-15T14:44:55.060Z,27.80
2023-05-15T14:47:21.976Z,27.76
2023-05-15T14:49:48.510Z,28.36
2023-05-15T14:52:15.056Z,28.68
2023-05-15T14:54:42.170Z,29.23
2023-05-15T14:57:08.797Z,28.65
2023-05-15T14:59:35.338Z,28.29
2023-05-15T15:02:02.425Z,28.83
2023-05-15T15:04:33.964Z,29.72
2023-05-15T15:07:03.511Z,29.08
2023-05-15T15:09:30.630Z,29.46
2023-05-15T15:11:57.101Z,28.50
2023-05-15T15:14:24.182Z,28.78
2023-05-15T15:16:51.586Z,28.89
2023-05-15T15:19:20.172Z,28.56
2023-05-15T15:21:48.043Z,27.52
2023-05-15T15:24:15.259Z,28.68
2023-05-15T15:26:41.881Z,28.72
2023-05-15T15:29:09.385Z,28.39
2023-05-15T15:31:36.635Z,29.04
2023-05-15T15:34:05.336Z,30.87
2023-05-15T15:36:32.553Z,33.78
2023-05-15T15:38:59.364Z,36.44
2023-05-15T15:41:26.058Z,36.58
2023-05-15T15:43:53.758Z,37.77
2023-05-15T15:46:20.783Z,37.69
2023-05-15T15:48:47.369Z,38.33
2023-05-15T15:51:13.855Z,38.00
2023-05-15T15:53:40.368Z,38.50
2023-05-15T15:56:07.624Z,38.48
2023-05-15T15:58:34.327Z,38.12
2023-05-15T16:01:01.200Z,38.38
2023-05-15T16:03:27.947Z,38.69
2023-05-15T16:05:54.550Z,38.34
2023-05-15T16:08:21.124Z,37.41
2023-05-15T16:10:47.677Z,37.53
2023-05-15T16:13:14.395Z,36.47
2023-05-15T16:15:40.857Z,36.70
2023-05-15T16:18:07.705Z,35.35
2023-05-15T16:20:35.253Z,36.29
2023-05-15T16:23:02.002Z,36.91
2023-05-15T16:25:28.500Z,35.61
2023-05-15T16:27:54.978Z,35.63
2023-05-15T16:30:21.793Z,35.66
2023-05-15T16:32:49.051Z,34.31
2023-05-15T16:35:15.786Z,33.81
2023-05-15T16:37:42.605Z,33.89
2023-05-15T16:40:09.782Z,34.51
2023-05-15T16:42:38.052Z,33.33
2023-05-15T16:45:07.971Z,33.39
2023-05-15T16:47:36.591Z,34.04
2023-05-15T16:50:03.551Z,35.28
2023-05-15T16:52:30.084Z,35.82
2023-05-15T16:54:56.674Z,35.78
2023-05-15T16:57:23.221Z,35.44
2023-05-15T16:59:50.156Z,36.41
2023-05-15T17:02:16.726Z,38.04
2023-05-15T17:04:43.243Z,37.35
2023-05-15T17:07:09.777Z,37.95
2023-05-15T17:09:38.298Z,37.62
2023-05-15T17:12:05.500Z,39.44
2023-05-15T17:14:32.325Z,41.41
2023-05-15T17:16:58.789Z,41.40
2023-05-15T17:19:25.437Z,42.29
2023-05-15T17:21:51.947Z,43.12
2023-05-15T17:24:18.974Z,42.98
2023-05-15T17:26:45.473Z,43.21
2023-05-15T17:29:12.026Z,42.68
2023-05-15T17:31:39.164Z,42.93
2023-05-15T17:34:05.641Z,43.61
2023-05-15T17:36:35.123Z,42.81
2023-05-15T17:39:01.603Z,43.47
2023-05-15T17:41:28.765Z,42.67
2023-05-15T17:43:55.285Z,42.67
2023-05-15T17:46:21.801Z,43.26
2023-05-15T17:48:48.315Z,43.08
2023-05-15T17:51:14.761Z,43.13
2023-05-15T17:53:41.225Z,43.33
2023-05-15T17:56:07.764Z,42.24
2023-05-15T17:58:34.314Z,43.32
2023-05-15T18:01:01.273Z,43.46
2023-05-15T18:03:27.950Z,43.37
2023-05-15T18:05:54.761Z,43.95
2023-05-15T18:08:21.326Z,42.90
2023-05-15T18:10:47.836Z,42.68
2023-05-15T18:13:14.465Z,42.97
2023-05-15T18:15:41.011Z,42.26
2023-05-15T18:18:08.169Z,43.22
2023-05-15T18:20:34.881Z,42.76
2023-05-15T18:23:01.724Z,42.72
2023-05-15T18:25:28.329Z,43.78
2023-05-15T18:27:55.058Z,43.64
2023-05-15T18:30:21.562Z,42.95
2023-05-15T18:32:48.089Z,43.77
2023-05-15T18:35:14.612Z,45.17
2023-05-15T18:37:41.072Z,44.76
2023-05-15T18:40:08.241Z,46.16
2023-05-15T18:42:35.116Z,46.41
2023-05-15T18:45:02.152Z,46.32
2023-05-15T18:47:28.662Z,46.36
2023-05-15T18:49:55.248Z,47.64
2023-05-15T18:52:21.812Z,47.73
2023-05-15T18:54:48.543Z,47.39
2023-05-15T18:57:14.997Z,48.33
2023-05-15T18:59:41.734Z,47.49
2023-05-15T19:02:09.660Z,48.84
2023-05-15T19:04:36.367Z,49.23
2023-05-15T19:07:02.861Z,49.57
2023-05-15T19:09:29.387Z,49.52
2023-05-15T19:11:55.983Z,50.76
2023-05-15T19:14:22.530Z,49.06
2023-05-15T19:16:49.228Z,49.97
2023-05-15T19:19:15.924Z,49.47
2023-05-15T19:21:42.465Z,48.71
2023-05-15T19:24:08.899Z,48.65
2023-05-15T19:26:35.374Z,48.38
2023-05-15T19:29:02.070Z,50.96
2023-05-15T19:31:32.012Z,50.58
2023-05-15T19:33:59.685Z,50.45
2023-05-15T19:36:26.313Z,51.48
2023-05-15T19:38:53.395Z,51.45
2023-05-15T19:41:21.578Z,50.70
2023-05-15T19:43:50.578Z,50.92
2023-05-15T19:46:18.336Z,51.89
2023-05-15T19:48:45.088Z,50.84
2023-05-15T19:51:12.095Z,52.66
2023-05-15T19:53:38.592Z,50.46
2023-05-15T19:56:05.638Z,50.44
2023-05-15T19:58:32.248Z,51.83
2023-05-15T20:00:58.998Z,51.26
2023-05-15T20:03:33.010Z,49.93
2023-05-15T20:06:03.147Z,50.92
2023-05-15T20:08:29.715Z,49.43
2023-05-15T20:10:56.914Z,48.49
2023-05-15T20:13:23.661Z,48.51
2023-05-15T20:15:57.792Z,49.03
2023-05-15T20:18:25.155Z,47.89
2023-05-15T20:20:54.486Z,47.89
2023-05-15T20:23:21.285Z,49.96
2023-05-15T20:25:49.770Z,49.18
2023-05-15T20:28:17.698Z,49.55
2023-05-15T20:30:47.143Z,49.54
2023-05-15T20:33:13.804Z,48.52
2023-05-15T20:35:40.371Z,48.24
2023-05-15T20:38:06.871Z,48.01
2023-05-15T20:40:33.617Z,48.74
2023-05-15T20:43:01.203Z,48.26
2023-05-15T20:45:32.340Z,48.74
2023-05-15T20:47:59.085Z,49.76
2023-05-15T20:50:26.155Z,48.66
2023-05-15T20:52:53.165Z,49.69
2023-05-15T20:55:21.446Z,50.54
2023-05-15T20:57:49.019Z,50.34
2023-05-15T21:00:16.703Z,49.69
2023-05-15T21:02:44.146Z,48.49
2023-05-15T21:05:10.934Z,50.86
2023-05-15T21:07:37.857Z,51.40
2023-05-15T21:10:04.829Z,51.02
2023-05-15T21:12:32.700Z,51.01
2023-05-15T21:14:59.151Z,50.58
2023-05-15T21:17:25.584Z,50.75
2023-05-15T21:19:52.374Z,49.49
2023-05-15T21:22:18.866Z,49.57
2023-05-15T21:24:46.241Z,48.61
2023-05-15T21:27:12.717Z,49.18
2023-05-15T21:29:39.191Z,49.13
2023-05-15T21:32:06.439Z,49.03
2023-05-15T21:34:32.901Z,48.05
2023-05-15T21:37:02.013Z,48.07
2023-05-15T21:39:28.505Z,48.57
2023-05-15T21:41:55.076Z,49.62
2023-05-15T21:44:21.613Z,50.30
2023-05-15T21:46:48.921Z,48.82
2023-05-15T21:49:15.544Z,48.49
2023-05-15T21:51:42.015Z,49.43
2023-05-15T21:54:08.470Z,49.78
2023-05-15T21:56:35.990Z,49.84
2023-05-15T21:59:02.541Z,48.55
2023-05-15T22:01:29.510Z,48.37
2023-05-15T22:03:56.369Z,48.64
2023-05-15T22:06:23.136Z,48.34
2023-05-15T22:08:49.638Z,48.10
2023-05-15T22:11:17.095Z,48.30
2023-05-15T22:13:43.630Z,48.20
2023-05-15T22:16:10.278Z,48.11
2023-05-15T22:18:37.772Z,47.61
2023-05-15T22:21:04.312Z,47.66
2023-05-15T22:23:31.455Z,48.02
2023-05-15T22:25:57.918Z,47.59
2023-05-15T22:28:24.631Z,48.17
2023-05-15T22:30:51.140Z,49.12
2023-05-15T22:33:24.320Z,48.22
2023-05-15T22:35:52.697Z,48.58
2023-05-15T22:38:19.513Z,48.66
2023-05-15T22:40:53.081Z,49.14
2023-05-15T22:43:19.854Z,49.16
2023-05-15T22:45:46.341Z,49.14
2023-05-15T22:48:12.826Z,49.04
2023-05-15T22:50:39.372Z,48.85
2023-05-15T22:53:06.253Z,49.51
2023-05-15T22:55:32.801Z,49.17
2023-05-15T22:57:59.559Z,48.54
2023-05-15T23:00:26.333Z,49.01
2023-05-15T23:02:55.239Z,49.69
2023-05-15T23:05:22.411Z,49.12
2023-05-15T23:07:48.986Z,48.77
2023-05-15T23:10:15.514Z,49.47
2023-05-15T23:12:42.503Z,50.00
2023-05-15T23:15:10.415Z,49.92
2023-05-15T23:17:37.036Z,49.83
2023-05-15T23:20:06.780Z,50.14
2023-05-15T23:22:33.382Z,49.58
2023-05-15T23:24:59.829Z,50.52
2023-05-15T23:27:26.386Z,50.31
2023-05-15T23:29:52.929Z,51.26
2023-05-15T23:32:19.431Z,50.82
2023-05-15T23:34:46.387Z,51.69
2023-05-15T23:37:12.863Z,51.75
2023-05-15T23:39:39.408Z,52.31
2023-05-15T23:42:06.243Z,52.56
2023-05-15T23:44:32.760Z,52.66
2023-05-15T23:46:59.291Z,53.88
2023-05-15T23:49:25.897Z,55.96
2023-05-15T23:51:52.447Z,56.29
2023-05-15T23:54:19.008Z,56.79
2023-05-15T23:56:45.491Z,57.10
2023-05-15T23:59:13.741Z,56.65
